createdAt,value
2019-02-08T00:02:04.073Z,5.58
2019-02-08T00:04:33.563Z,5.48
2019-02-08T00:07:04.063Z,5.48
2019-02-08T00:09:38.178Z,5.45
2019-02-08T00:12:11.329Z,5.45
2019-02-08T00:14:41.029Z,5.70
2019-02-08T00:17:11.960Z,5.61
2019-02-08T00:19:43.404Z,5.60
2019-02-08T00:22:13.485Z,5.60
2019-02-08T00:24:44.266Z,5.67
2019-02-08T00:27:15.597Z,5.83
2019-02-08T00:29:46.953Z,5.64
2019-02-08T00:32:17.881Z,5.55
2019-02-08T00:34:52.100Z,5.52
2019-02-08T00:37:21.714Z,5.52
2019-02-08T00:39:51.627Z,5.44
2019-02-08T00:42:21.328Z,5.51
2019-02-08T00:44:50.831Z,5.49
2019-02-08T00:47:21.078Z,5.49
2019-02-08T00:49:52.297Z,5.46
2019-02-08T00:52:23.337Z,5.56
2019-02-08T00:54:54.842Z,5.56
2019-02-08T00:57:24.306Z,5.44
2019-02-08T00:59:55.098Z,5.43
2019-02-08T01:02:24.932Z,5.40
2019-02-08T01:04:55.150Z,5.39
2019-02-08T01:07:26.703Z,5.36
2019-02-08T01:10:01.077Z,5.30
2019-02-08T01:12:32.065Z,5.32
2019-02-08T01:15:03.932Z,5.32
2019-02-08T01:17:33.604Z,5.43
2019-02-08T01:20:03.206Z,5.30
2019-02-08T01:22:35.271Z,5.32
2019-02-08T01:25:05.976Z,5.25
2019-02-08T01:27:38.773Z,5.25
2019-02-08T01:30:12.201Z,5.33
2019-02-08T01:32:41.769Z,5.34
2019-02-08T01:35:11.377Z,5.34
2019-02-08T01:37:41.387Z,5.39
2019-02-08T01:40:15.192Z,5.32
2019-02-08T01:42:44.653Z,5.32
2019-02-08T01:45:17.479Z,5.28
2019-02-08T01:47:47.503Z,5.19
2019-02-08T01:50:20.742Z,5.19
2019-02-08T01:52:50.139Z,5.36
2019-02-08T01:55:22.010Z,5.33
2019-02-08T01:57:52.226Z,5.33
2019-02-08T02:00:39.871Z,5.29
2019-02-08T02:03:10.278Z,5.29
2019-02-08T02:05:40.035Z,5.43
2019-02-08T02:08:11.130Z,5.37
2019-02-08T02:10:44.976Z,5.25
2019-02-08T02:13:14.466Z,5.20
2019-02-08T02:15:44.148Z,5.23
2019-02-08T02:18:14.266Z,5.23
2019-02-08T02:20:44.246Z,5.18
2019-02-08T02:23:16.137Z,5.18
2019-02-08T02:25:47.453Z,5.16
2019-02-08T02:28:17.655Z,5.16
2019-02-08T02:30:47.933Z,5.06
2019-02-08T02:33:17.678Z,5.06
2019-02-08T02:35:47.707Z,5.27
2019-02-08T02:38:17.400Z,5.09
2019-02-08T02:40:47.483Z,5.19
2019-02-08T02:43:17.302Z,5.19
2019-02-08T02:45:47.035Z,4.99
2019-02-08T02:48:17.067Z,5.08
2019-02-08T02:50:46.668Z,5.09
2019-02-08T02:53:16.272Z,5.06
2019-02-08T02:55:46.332Z,5.19
2019-02-08T02:58:15.971Z,5.19
2019-02-08T03:00:50.536Z,5.20
2019-02-08T03:03:20.281Z,5.13
2019-02-08T03:05:51.239Z,5.17
2019-02-08T03:08:21.792Z,5.12
2019-02-08T03:10:53.091Z,5.15
2019-02-08T03:13:22.804Z,5.17
2019-02-08T03:15:52.376Z,5.17
2019-02-08T03:18:22.068Z,5.11
2019-02-08T03:20:52.084Z,5.07
2019-02-08T03:23:21.855Z,5.07
2019-02-08T03:25:51.449Z,5.16
2019-02-08T03:28:21.460Z,5.11
2019-02-08T03:30:53.680Z,5.11
2019-02-08T03:33:23.404Z,5.03
2019-02-08T03:35:53.401Z,5.09
2019-02-08T03:38:23.980Z,5.02
2019-02-08T03:40:54.358Z,5.21
2019-02-08T03:43:24.208Z,5.06
2019-02-08T03:45:54.594Z,5.13
2019-02-08T03:48:25.029Z,5.13
2019-02-08T03:50:54.932Z,5.07
2019-02-08T03:53:24.539Z,5.07
2019-02-08T03:55:58.338Z,5.01
2019-02-08T03:58:27.678Z,4.98
2019-02-08T04:01:16.147Z,4.98
2019-02-08T04:03:46.378Z,4.88
2019-02-08T04:06:16.282Z,4.88
2019-02-08T04:08:46.364Z,4.79
2019-02-08T04:11:16.587Z,4.89
2019-02-08T04:13:46.350Z,4.74
2019-02-08T04:16:16.080Z,4.72
2019-02-08T04:18:45.997Z,4.72
2019-02-08T04:21:15.846Z,4.73
2019-02-08T04:23:45.493Z,4.78
2019-02-08T04:26:15.719Z,4.67
2019-02-08T04:28:46.075Z,4.67
2019-02-08T04:31:18.080Z,4.71
2019-02-08T04:33:47.968Z,4.69
2019-02-08T04:36:17.512Z,4.96
2019-02-08T04:38:47.342Z,4.96
2019-02-08T04:41:17.476Z,4.75
2019-02-08T04:43:47.332Z,4.75
2019-02-08T04:46:16.914Z,4.72
2019-02-08T04:48:46.567Z,4.72
2019-02-08T04:51:18.211Z,4.71
2019-02-08T04:53:47.836Z,4.71
2019-02-08T04:56:20.595Z,4.73
2019-02-08T04:58:50.545Z,4.67
2019-02-08T05:01:20.469Z,4.66
2019-02-08T05:03:50.290Z,4.70
2019-02-08T05:06:22.104Z,4.63
2019-02-08T05:08:52.009Z,4.58
2019-02-08T05:11:22.192Z,4.58
2019-02-08T05:13:52.239Z,4.72
2019-02-08T05:16:21.971Z,4.72
2019-02-08T05:18:52.005Z,4.68
2019-02-08T05:21:23.893Z,4.74
2019-02-08T05:23:53.592Z,4.75
2019-02-08T05:26:23.284Z,4.73
2019-02-08T05:28:53.246Z,4.71
2019-02-08T05:31:23.141Z,4.71
2019-02-08T05:33:52.977Z,4.65
2019-02-08T05:36:23.419Z,4.77
2019-02-08T05:38:53.113Z,4.61
2019-02-08T05:41:25.237Z,4.60
2019-02-08T05:43:54.875Z,4.61
2019-02-08T05:46:24.384Z,4.57
2019-02-08T05:48:54.184Z,4.57
2019-02-08T05:51:24.357Z,4.67
2019-02-08T05:53:54.085Z,4.63
2019-02-08T05:56:23.879Z,4.68
2019-02-08T05:58:53.657Z,4.67
2019-02-08T06:01:25.766Z,4.67
2019-02-08T06:03:55.522Z,4.69
2019-02-08T06:06:25.443Z,4.77
2019-02-08T06:08:55.045Z,4.75
2019-02-08T06:11:25.872Z,4.75
2019-02-08T06:13:55.589Z,4.73
2019-02-08T06:16:25.616Z,4.75
2019-02-08T06:18:55.802Z,4.77
2019-02-08T06:21:25.497Z,4.83
2019-02-08T06:24:01.750Z,4.83
2019-02-08T06:26:31.900Z,4.84
2019-02-08T06:29:01.962Z,4.89
2019-02-08T06:31:32.024Z,4.89
2019-02-08T06:34:01.537Z,4.98
2019-02-08T06:36:31.286Z,4.97
2019-02-08T06:39:01.303Z,4.97
2019-02-08T06:41:30.937Z,4.99
2019-02-08T06:44:00.742Z,5.03
2019-02-08T06:46:33.424Z,5.03
2019-02-08T06:49:03.119Z,5.04
2019-02-08T06:51:34.803Z,5.04
2019-02-08T06:54:05.218Z,5.04
2019-02-08T06:56:53.989Z,5.04
2019-02-08T06:59:32.093Z,5.09
2019-02-08T07:02:23.223Z,5.05
2019-02-08T07:05:20.975Z,5.03
2019-02-08T07:08:08.360Z,5.11
2019-02-08T07:11:02.870Z,5.17
2019-02-08T07:13:45.675Z,5.10
2019-02-08T07:16:37.980Z,5.10
2019-02-08T07:19:17.326Z,5.13
2019-02-08T07:22:09.728Z,5.13
2019-02-08T07:25:01.245Z,5.15
2019-02-08T07:27:40.567Z,5.17
2019-02-08T07:30:26.303Z,5.08
2019-02-08T07:33:08.821Z,5.15
2019-02-08T07:35:55.744Z,5.16
2019-02-08T07:38:36.040Z,5.16
2019-02-08T07:41:35.750Z,5.23
2019-02-08T07:44:33.414Z,5.16
2019-02-08T07:47:14.978Z,5.16
2019-02-08T07:50:09.640Z,5.14
2019-02-08T07:53:01.131Z,5.18
2019-02-08T07:55:52.441Z,5.13
2019-02-08T07:58:47.631Z,5.12
2019-02-08T08:01:37.734Z,5.12
2019-02-08T08:04:35.797Z,5.23
2019-02-08T08:07:27.138Z,5.23
2019-02-08T08:10:03.176Z,5.18
2019-02-08T08:12:54.893Z,5.14
2019-02-08T08:15:41.077Z,5.14
2019-02-08T08:18:48.168Z,5.17
2019-02-08T08:21:51.677Z,5.19
2019-02-08T08:24:43.092Z,5.19
2019-02-08T08:27:28.805Z,5.20
2019-02-08T08:30:16.228Z,5.29
2019-02-08T08:33:10.460Z,5.35
2019-02-08T08:35:56.986Z,5.35
2019-02-08T08:39:00.575Z,5.28
2019-02-08T08:42:06.661Z,5.36
2019-02-08T08:45:26.861Z,5.36
2019-02-08T08:48:37.984Z,5.38
2019-02-08T08:51:50.557Z,5.38
2019-02-08T08:54:49.598Z,5.32
2019-02-08T08:57:42.191Z,5.38
2019-02-08T09:01:09.701Z,5.42
2019-02-08T09:03:54.159Z,5.42
2019-02-08T09:07:02.621Z,5.30
2019-02-08T09:10:07.758Z,5.32
2019-02-08T09:13:15.028Z,5.43
2019-02-08T09:16:34.708Z,5.36
2019-02-08T09:19:42.888Z,5.30
2019-02-08T09:22:39.893Z,5.30
2019-02-08T09:25:23.692Z,5.44
2019-02-08T09:28:20.598Z,5.44
2019-02-08T09:31:43.488Z,5.36
2019-02-08T09:34:46.859Z,5.36
2019-02-08T09:37:34.695Z,5.43
2019-02-08T09:40:54.266Z,5.43
2019-02-08T09:44:04.091Z,5.33
2019-02-08T09:47:27.152Z,5.33
2019-02-08T09:50:25.242Z,5.44
2019-02-08T09:53:22.026Z,5.45
2019-02-08T09:56:32.211Z,5.45
2019-02-08T09:59:53.538Z,5.39
2019-02-08T10:02:58.598Z,5.39
2019-02-08T10:06:05.963Z,5.35
2019-02-08T10:09:14.768Z,5.63
2019-02-08T10:12:19.831Z,5.60
2019-02-08T10:15:37.221Z,5.53
2019-02-08T10:18:46.687Z,5.56
2019-02-08T10:21:45.691Z,5.56
2019-02-08T10:24:38.242Z,5.62
2019-02-08T10:28:00.613Z,5.62
2019-02-08T10:31:01.297Z,5.69
2019-02-08T10:34:16.220Z,5.68
2019-02-08T10:37:35.107Z,5.75
2019-02-08T10:40:35.964Z,5.75
2019-02-08T10:44:00.481Z,5.75
2019-02-08T10:47:11.888Z,5.80
2019-02-08T10:50:16.958Z,5.93
2019-02-08T10:53:55.725Z,5.77
2019-02-08T10:57:15.575Z,5.91
2019-02-08T11:00:16.612Z,5.79
2019-02-08T11:03:30.506Z,5.85
2019-02-08T11:09:28.480Z,6.47
2019-02-08T11:12:52.600Z,6.37
2019-02-08T11:15:53.095Z,6.31
2019-02-08T11:19:02.087Z,6.29
2019-02-08T11:21:31.563Z,6.22
2019-02-08T11:24:04.637Z,6.36
2019-02-08T11:26:34.210Z,6.36
2019-02-08T11:29:21.682Z,6.39
2019-02-08T11:31:51.124Z,6.41
2019-02-08T11:34:20.553Z,6.55
2019-02-08T11:36:51.163Z,6.62
2019-02-08T11:39:20.948Z,6.62
2019-02-08T11:41:56.551Z,6.72
2019-02-08T11:44:31.315Z,6.64
2019-02-08T11:47:01.016Z,6.65
2019-02-08T11:49:32.645Z,6.68
2019-02-08T11:52:02.384Z,6.70
2019-02-08T11:54:31.990Z,6.70
2019-02-08T11:57:02.078Z,6.76
2019-02-08T11:59:31.957Z,6.73
2019-02-08T12:02:01.688Z,6.73
2019-02-08T12:04:34.339Z,6.94
2019-02-08T12:07:03.965Z,6.94
2019-02-08T12:09:34.873Z,6.94
2019-02-08T12:12:06.210Z,6.99
2019-02-08T12:14:35.849Z,6.99
2019-02-08T12:17:05.595Z,7.03
2019-02-08T12:19:35.406Z,7.03
2019-02-08T12:22:04.963Z,7.07
2019-02-08T12:24:34.871Z,7.16
2019-02-08T12:27:04.484Z,7.12
2019-02-08T12:32:08.219Z,7.69
2019-02-08T12:34:37.883Z,7.74
2019-02-08T12:37:07.378Z,7.48
2019-02-08T12:39:37.226Z,7.48
2019-02-08T12:42:10.116Z,7.33
2019-02-08T12:44:40.057Z,7.21
2019-02-08T12:47:09.442Z,7.21
2019-02-08T12:49:40.294Z,7.23
2019-02-08T12:52:09.757Z,7.06
2019-02-08T12:54:39.242Z,7.05
2019-02-08T12:57:08.954Z,7.02
2019-02-08T12:59:38.342Z,6.95
2019-02-08T13:02:07.811Z,6.95
2019-02-08T13:04:38.035Z,6.95
2019-02-08T13:07:08.113Z,7.00
2019-02-08T13:09:41.084Z,6.96
2019-02-08T13:12:14.461Z,6.95
2019-02-08T13:14:44.294Z,6.95
2019-02-08T13:17:14.559Z,7.03
2019-02-08T13:19:44.605Z,6.98
2019-02-08T13:22:16.460Z,6.98
2019-02-08T13:24:46.405Z,7.06
2019-02-08T13:27:20.723Z,7.05
2019-02-08T13:29:50.236Z,7.00
2019-02-08T13:32:19.815Z,7.00
2019-02-08T13:34:49.318Z,7.00
2019-02-08T13:37:22.150Z,6.95
2019-02-08T13:39:52.095Z,7.08
2019-02-08T13:42:21.647Z,7.08
2019-02-08T13:44:51.098Z,7.06
2019-02-08T13:47:20.505Z,7.00
2019-02-08T13:49:51.612Z,7.08
2019-02-08T13:52:23.418Z,6.83
2019-02-08T13:54:53.095Z,6.76
2019-02-08T13:57:24.748Z,6.76
2019-02-08T13:59:54.576Z,6.81
2019-02-08T14:02:25.355Z,6.67
2019-02-08T14:04:54.849Z,6.67
2019-02-08T14:07:24.291Z,6.63
2019-02-08T14:09:55.308Z,6.65
2019-02-08T14:12:27.093Z,6.65
2019-02-08T14:14:56.953Z,6.72
2019-02-08T14:17:26.733Z,6.71
2019-02-08T14:19:56.204Z,6.71
2019-02-08T14:22:26.045Z,6.65
2019-02-08T14:24:59.268Z,6.64
2019-02-08T14:27:29.084Z,6.60
2019-02-08T14:29:58.555Z,6.60
2019-02-08T14:32:30.881Z,6.67
2019-02-08T14:35:01.592Z,6.66
2019-02-08T14:37:31.145Z,6.58
2019-02-08T14:40:00.784Z,6.58
2019-02-08T14:42:31.355Z,6.65
2019-02-08T14:45:01.449Z,6.71
2019-02-08T14:47:35.860Z,6.68
2019-02-08T14:50:07.451Z,6.69
2019-02-08T14:52:38.437Z,6.67
2019-02-08T14:55:09.309Z,6.67
2019-02-08T14:57:39.040Z,6.76
2019-02-08T15:00:13.682Z,6.76
2019-02-08T15:02:43.335Z,6.73
2019-02-08T15:05:13.271Z,6.71
2019-02-08T15:07:43.519Z,6.80
2019-02-08T15:10:16.955Z,6.80
2019-02-08T15:12:46.931Z,6.74
2019-02-08T15:15:16.440Z,6.74
2019-02-08T15:17:46.069Z,6.64
2019-02-08T15:20:37.438Z,6.80
2019-02-08T15:23:10.183Z,6.80
2019-02-08T15:25:40.577Z,6.73
2019-02-08T15:28:10.719Z,6.64
2019-02-08T15:30:40.274Z,6.64
2019-02-08T15:33:10.145Z,6.64
2019-02-08T15:35:39.532Z,6.65
2019-02-08T15:38:09.256Z,6.74
2019-02-08T15:40:47.066Z,6.74
2019-02-08T15:43:20.173Z,6.64
2019-02-08T15:46:04.600Z,6.64
2019-02-08T15:48:34.425Z,6.64
2019-02-08T15:51:03.896Z,6.74
2019-02-08T15:53:38.779Z,6.74
2019-02-08T15:56:12.019Z,6.68
2019-02-08T15:58:45.078Z,6.61
2019-02-08T16:01:14.855Z,6.69
2019-02-08T16:03:44.323Z,6.71
2019-02-08T16:06:19.436Z,6.71
2019-02-08T16:08:49.207Z,6.67
2019-02-08T16:11:19.104Z,6.65
2019-02-08T16:13:48.968Z,6.65
2019-02-08T16:16:18.384Z,6.64
2019-02-08T16:18:47.998Z,6.67
2019-02-08T16:21:20.205Z,6.61
2019-02-08T16:23:49.628Z,6.61
2019-02-08T16:26:19.138Z,6.68
2019-02-08T16:28:50.316Z,6.68
2019-02-08T16:31:20.507Z,6.61
2019-02-08T16:33:57.061Z,6.58
2019-02-08T16:36:26.613Z,6.63
2019-02-08T16:38:56.458Z,6.61
2019-02-08T16:41:26.278Z,6.61
2019-02-08T16:43:56.819Z,6.61
2019-02-08T16:46:26.276Z,6.65
2019-02-08T16:48:58.291Z,6.70
2019-02-08T16:51:27.813Z,6.67
2019-02-08T16:53:57.664Z,6.73
2019-02-08T16:56:34.106Z,6.77
2019-02-08T16:59:03.597Z,6.72
2019-02-08T17:01:33.692Z,6.72
2019-02-08T17:04:03.289Z,6.76
2019-02-08T17:06:33.163Z,6.71
2019-02-08T17:09:03.541Z,6.70
2019-02-08T17:11:33.329Z,6.70
2019-02-08T17:14:02.740Z,6.68
2019-02-08T17:16:32.228Z,6.74
2019-02-08T17:19:03.757Z,6.73
2019-02-08T17:21:33.214Z,6.73
2019-02-08T17:24:06.257Z,6.72
2019-02-08T17:26:36.074Z,6.72
2019-02-08T17:29:05.566Z,6.74
2019-02-08T17:31:37.261Z,6.72
2019-02-08T17:34:07.026Z,6.79
2019-02-08T17:36:36.606Z,6.68
2019-02-08T17:39:08.181Z,6.70
2019-02-08T17:41:37.606Z,6.70
2019-02-08T17:44:07.582Z,6.68
2019-02-08T17:46:37.078Z,6.72
2019-02-08T17:49:08.694Z,6.72
2019-02-08T17:51:38.415Z,6.62
2019-02-08T17:54:08.153Z,6.73
2019-02-08T17:56:37.837Z,6.69
2019-02-08T17:59:07.356Z,6.69
2019-02-08T18:01:37.145Z,6.63
2019-02-08T18:04:07.142Z,6.62
2019-02-08T18:06:37.672Z,6.64
2019-02-08T18:09:09.297Z,6.67
2019-02-08T18:11:38.882Z,6.60
2019-02-08T18:14:08.750Z,6.65
2019-02-08T18:16:38.306Z,6.65
2019-02-08T18:19:08.049Z,6.65
2019-02-08T18:21:38.872Z,6.69
2019-02-08T18:24:08.698Z,6.65
2019-02-08T18:26:41.379Z,6.74
2019-02-08T18:29:11.007Z,6.74
2019-02-08T18:31:40.635Z,6.79
2019-02-08T18:34:16.142Z,6.75
2019-02-08T18:36:46.310Z,6.72
2019-02-08T18:39:16.200Z,6.72
2019-02-08T18:41:46.259Z,6.78
2019-02-08T18:44:15.728Z,6.84
2019-02-08T18:46:45.387Z,6.82
2019-02-08T18:49:14.878Z,6.82
2019-02-08T18:51:44.470Z,6.85
2019-02-08T18:54:14.007Z,6.84
2019-02-08T18:56:43.766Z,6.84
2019-02-08T18:59:13.369Z,6.75
2019-02-08T19:01:43.061Z,6.75
2019-02-08T19:04:12.611Z,6.79
2019-02-08T19:06:44.139Z,6.74
2019-02-08T19:09:14.127Z,6.75
2019-02-08T19:11:45.354Z,6.84
2019-02-08T19:14:18.101Z,6.82
2019-02-08T19:16:51.113Z,6.81
2019-02-08T19:19:20.708Z,6.82
2019-02-08T19:21:53.340Z,6.85
2019-02-08T19:26:49.163Z,7.29
2019-02-08T19:29:20.235Z,7.25
2019-02-08T19:31:50.030Z,7.25
2019-02-08T19:34:20.924Z,7.10
2019-02-08T19:36:53.003Z,6.99
2019-02-08T19:39:24.812Z,6.97
2019-02-08T19:41:55.009Z,6.97
2019-02-08T19:44:25.592Z,6.97
2019-02-08T19:46:55.214Z,6.90
2019-02-08T19:49:27.161Z,6.87
2019-02-08T19:52:00.489Z,6.87
2019-02-08T19:54:30.242Z,6.87
2019-02-08T19:56:59.824Z,6.80
2019-02-08T19:59:30.627Z,6.80
2019-02-08T20:02:00.441Z,6.80
2019-02-08T20:04:30.147Z,6.92
2019-02-08T20:07:01.526Z,6.94
2019-02-08T20:09:32.466Z,6.94
2019-02-08T20:12:02.095Z,6.87
2019-02-08T20:14:32.075Z,6.80
2019-02-08T20:17:01.660Z,6.79
2019-02-08T20:19:34.097Z,6.69
2019-02-08T20:22:03.659Z,6.69
2019-02-08T20:24:33.202Z,6.76
2019-02-08T20:27:05.859Z,6.76
2019-02-08T20:29:39.130Z,6.76
2019-02-08T20:32:08.943Z,6.76
2019-02-08T20:34:38.633Z,6.77
2019-02-08T20:37:11.661Z,6.77
2019-02-08T20:39:42.617Z,6.76
2019-02-08T20:42:22.527Z,6.76
2019-02-08T20:44:55.334Z,6.79
2019-02-08T20:47:24.777Z,6.85
2019-02-08T20:49:54.732Z,6.67
2019-02-08T20:52:24.467Z,6.67
2019-02-08T20:54:56.607Z,6.70
2019-02-08T20:57:26.890Z,6.70
2019-02-08T20:59:59.167Z,6.68
2019-02-08T21:02:28.748Z,6.69
2019-02-08T21:04:59.313Z,6.68
2019-02-08T21:07:29.095Z,6.70
2019-02-08T21:09:59.062Z,6.71
2019-02-08T21:12:28.616Z,6.67
2019-02-08T21:15:00.627Z,6.67
2019-02-08T21:17:30.167Z,6.67
2019-02-08T21:20:05.329Z,6.68
2019-02-08T21:22:35.456Z,6.74
2019-02-08T21:25:05.230Z,6.70
2019-02-08T21:27:34.900Z,6.74
2019-02-08T21:30:07.603Z,6.73
2019-02-08T21:32:39.549Z,6.73
2019-02-08T21:35:10.170Z,6.69
2019-02-08T21:37:40.242Z,6.69
2019-02-08T21:40:11.095Z,6.74
2019-02-08T21:42:41.018Z,6.67
2019-02-08T21:45:13.744Z,6.69
2019-02-08T21:47:43.840Z,6.69
2019-02-08T21:50:19.169Z,6.69
2019-02-08T21:52:49.837Z,6.63
2019-02-08T21:55:26.417Z,6.63
2019-02-08T21:58:02.649Z,6.66
2019-02-08T22:00:33.293Z,6.64
2019-02-08T22:03:07.596Z,6.59
2019-02-08T22:06:03.053Z,6.62
2019-02-08T22:08:33.091Z,6.70
2019-02-08T22:11:03.465Z,6.65
2019-02-08T22:13:33.079Z,6.65
2019-02-08T22:16:06.465Z,6.64
2019-02-08T22:18:36.239Z,6.64
2019-02-08T22:21:06.167Z,6.71
2019-02-08T22:23:36.225Z,6.71
2019-02-08T22:26:09.207Z,6.72
2019-02-08T22:28:39.175Z,6.78
2019-02-08T22:31:09.112Z,6.84
2019-02-08T22:33:38.682Z,6.81
2019-02-08T22:36:09.080Z,6.81
2019-02-08T22:38:38.676Z,6.81
2019-02-08T22:41:08.694Z,6.81
2019-02-08T22:43:38.086Z,6.87
2019-02-08T22:46:10.164Z,6.83
2019-02-08T22:48:39.794Z,6.89
2019-02-08T22:51:10.232Z,6.93
2019-02-08T22:53:39.825Z,6.93
2019-02-08T22:56:09.837Z,6.91
2019-02-08T22:58:39.582Z,6.92
2019-02-08T23:01:30.167Z,6.95
2019-02-08T23:04:05.536Z,6.95
2019-02-08T23:06:35.317Z,6.96
2019-02-08T23:09:08.212Z,7.00
2019-02-08T23:11:39.500Z,7.00
2019-02-08T23:14:09.402Z,7.02
2019-02-08T23:16:39.342Z,7.03
2019-02-08T23:19:09.526Z,7.06
2019-02-08T23:21:39.276Z,7.06
2019-02-08T23:24:09.154Z,7.05
2019-02-08T23:26:39.121Z,7.00
2019-02-08T23:29:10.346Z,7.12
2019-02-08T23:31:40.464Z,7.07
2019-02-08T23:34:12.697Z,7.06
2019-02-08T23:36:42.413Z,7.08
2019-02-08T23:39:17.467Z,7.06
2019-02-08T23:41:47.207Z,7.06
2019-02-08T23:44:19.998Z,7.11
2019-02-08T23:46:53.074Z,7.11
2019-02-08T23:49:22.499Z,7.10
2019-02-08T23:51:54.229Z,7.10
2019-02-08T23:54:24.086Z,7.08
2019-02-08T23:56:57.318Z,7.04
2019-02-08T23:59:27.133Z,7.04
